カンクン の空港の天気 - METARとTAF

カンクン国際空港 ( MMUN / CUN ) - メキシコ キンタナ・ロー州カンクン
飛行場実況気象(Metar)
観測時間04/27 10:51 CDT (04/27 15:51 UTC)
風向・風速東南東 6m/s
視程10km以上
天気現象
全天の8割程度の雲 雲底高度 460m
気温29℃
湿度79%
気圧1011hPa
METARMMUN 271551Z 12012KT 7SM BKN015TCU 29/25 A2985 RMK 8/200
過去の天気等 Google飛行場航空写真 Wunderground天気予報

過去48時間のMETAR

飛行場予報(TAF)
発表時間: 4/27 06:07 CDT (4/27 11:07 UTC)
予報対象時間: 27日7時 CDT ~ 28日13時 CDT
風向・風速南東 6m/s
視程10km以上
全天の4割程度の雲 雲底高度 460m
27日12時 CDT から
風向・風速南東 8m/s
視程10km以上
全天の4割程度の雲 雲底高度 460m
27日21時 CDT から
風向・風速南東 4m/s
視程10km以上
全天の4割程度の雲 雲底高度 460m
28日10時 CDT から
風向・風速南東 8m/s
視程10km以上
全天の4割程度の雲 雲底高度 460m
TAF MMUN 271107Z 2712/2818 13012KT P6SM SCT015 TX30/2720Z TN25/2712Z
FM271700 13015KT P6SM SCT015
FM280200 13008KT P6SM SCT015
FM281500 13015KT P6SM SCT015